Terminal Aerodrome Forecast
Issued by NWS

Home | Current Version | Previous Version | Text Only | Print | Product List | Glossary On
Versions: 1 2 3 4 5 6 7 8 9 10 11 12 13 14 15 16 17 18 19 20 21 22 23 24 25 26 27 28 29 30 31 32 33 34 35 36 37 38 39 40 41 42 43 44 45 46 47
000
FTUS45 KGJT 030324 AAB
TAFDRO
TAF AMD
KDRO 030324Z 0303/0324 28015G25KT 5SM -SN BR SCT015 OVC040
      TEMPO 0303/0304 3SM -SN BR SCT015 OVC030
     FM030600 25012G22KT P6SM VCSH FEW025 SCT045 OVC060
     FM031400 13006KT P6SM OVC050
     FM031900 25015G25KT P6SM VCSH SCT040 OVC070=

USA.gov is the U.S. government's official web portal to all federal, state and local government web resources and services.